createdAt,value
2022-08-26T00:03:58.839Z,19.00
2022-08-26T00:08:00.884Z,19.20
2022-08-26T00:12:03.467Z,19.20
2022-08-26T00:16:07.468Z,19.10
2022-08-26T00:20:11.729Z,19.10
2022-08-26T00:24:13.878Z,19.10
2022-08-26T00:28:16.211Z,19.10
2022-08-26T00:32:20.967Z,19.00
2022-08-26T00:36:23.080Z,18.90
2022-08-26T00:40:35.459Z,18.80
2022-08-26T00:44:37.854Z,18.80
2022-08-26T00:48:44.038Z,18.80
2022-08-26T00:52:48.253Z,18.70
2022-08-26T00:56:56.902Z,18.60
2022-08-26T01:00:58.886Z,18.60
2022-08-26T01:05:03.405Z,18.60
2022-08-26T01:09:06.350Z,18.50
2022-08-26T01:13:11.380Z,18.60
2022-08-26T01:17:13.425Z,18.60
2022-08-26T01:21:46.871Z,18.60
2022-08-26T01:25:56.682Z,18.50
2022-08-26T01:30:00.537Z,18.40
2022-08-26T01:34:11.137Z,18.30
2022-08-26T01:38:13.844Z,18.30
2022-08-26T01:42:18.299Z,18.30
2022-08-26T01:46:22.709Z,18.30
2022-08-26T01:50:33.499Z,18.20
2022-08-26T01:54:36.127Z,18.10
2022-08-26T01:58:40.203Z,17.90
2022-08-26T02:02:45.171Z,17.90
2022-08-26T02:06:48.513Z,17.80
2022-08-26T02:10:50.518Z,17.80
2022-08-26T02:15:00.518Z,17.80
2022-08-26T02:19:04.201Z,17.70
2022-08-26T02:23:07.388Z,17.50
2022-08-26T02:27:09.537Z,17.70
2022-08-26T02:31:11.565Z,17.60
2022-08-26T02:35:20.006Z,17.70
2022-08-26T02:39:22.532Z,17.70
2022-08-26T02:43:32.839Z,17.70
2022-08-26T02:47:35.239Z,17.50
2022-08-26T02:51:37.286Z,17.60
2022-08-26T02:55:40.442Z,17.60
2022-08-26T02:59:42.422Z,17.60
2022-08-26T03:03:44.333Z,17.70
2022-08-26T03:07:46.724Z,17.70
2022-08-26T03:11:48.798Z,17.20
2022-08-26T03:15:51.147Z,17.00
2022-08-26T03:19:57.036Z,16.90
2022-08-26T03:23:59.754Z,16.90
2022-08-26T03:28:02.488Z,16.90
2022-08-26T03:32:04.705Z,16.90
2022-08-26T03:36:07.824Z,17.00
2022-08-26T03:40:11.628Z,17.00
2022-08-26T03:44:14.516Z,17.10
2022-08-26T03:48:16.530Z,17.10
2022-08-26T03:52:18.462Z,17.20
2022-08-26T03:56:20.491Z,17.20
2022-08-26T04:00:22.770Z,17.10
2022-08-26T04:04:26.362Z,17.10
2022-08-26T04:08:28.603Z,17.10
2022-08-26T04:12:30.617Z,16.90
2022-08-26T04:16:32.586Z,16.80
2022-08-26T04:20:34.620Z,16.60
2022-08-26T04:24:39.564Z,15.10
2022-08-26T04:28:41.489Z,16.50
2022-08-26T04:32:43.462Z,16.50
2022-08-26T04:36:45.504Z,16.50
2022-08-26T04:40:47.453Z,16.50
2022-08-26T04:44:49.975Z,16.30
2022-08-26T04:48:53.508Z,16.20
2022-08-26T04:52:55.775Z,16.40
2022-08-26T04:56:57.699Z,16.50
2022-08-26T05:01:00.369Z,16.60
2022-08-26T05:05:02.820Z,16.60
2022-08-26T05:09:05.876Z,16.80
2022-08-26T05:13:10.969Z,17.00
2022-08-26T05:17:15.090Z,17.20
2022-08-26T05:21:22.694Z,17.20
2022-08-26T05:25:24.678Z,17.20
2022-08-26T05:29:29.505Z,17.30
2022-08-26T05:33:31.421Z,17.30
2022-08-26T05:37:33.342Z,17.30
2022-08-26T05:41:38.657Z,17.20
2022-08-26T05:45:46.299Z,17.20
2022-08-26T05:49:49.272Z,17.30
2022-08-26T05:53:55.062Z,17.40
2022-08-26T05:57:57.364Z,17.60
2022-08-26T06:01:59.782Z,17.80
2022-08-26T06:06:08.433Z,18.20
2022-08-26T06:10:32.630Z,18.20
2022-08-26T06:14:36.182Z,18.30
2022-08-26T06:18:41.753Z,18.70
2022-08-26T06:23:02.222Z,18.90
2022-08-26T06:27:09.647Z,19.10
2022-08-26T06:31:14.212Z,18.90
2022-08-26T06:35:16.296Z,18.80
2022-08-26T06:39:19.052Z,19.10
2022-08-26T06:43:25.074Z,19.40
2022-08-26T06:47:27.268Z,19.50
2022-08-26T06:51:34.253Z,19.90
2022-08-26T06:55:41.578Z,20.00
2022-08-26T06:59:44.101Z,20.10
2022-08-26T07:03:47.663Z,20.40
2022-08-26T07:07:50.081Z,21.10
2022-08-26T07:11:53.335Z,21.50
2022-08-26T07:15:58.052Z,21.50
2022-08-26T07:20:07.924Z,22.00
2022-08-26T07:24:11.363Z,22.60
2022-08-26T07:28:13.310Z,23.20
2022-08-26T07:32:17.141Z,24.20
2022-08-26T07:36:21.199Z,25.10
2022-08-26T07:40:23.744Z,26.20
2022-08-26T07:44:27.255Z,26.30
2022-08-26T07:48:29.272Z,26.60
2022-08-26T07:52:32.455Z,26.30
2022-08-26T07:56:35.690Z,26.10
2022-08-26T08:00:38.873Z,26.00
2022-08-26T08:04:40.790Z,26.90
2022-08-26T08:08:42.956Z,28.30
2022-08-26T08:12:45.533Z,29.20
2022-08-26T08:16:47.672Z,30.60
2022-08-26T08:20:59.401Z,30.70
2022-08-26T08:25:08.174Z,30.70
2022-08-26T08:29:12.617Z,31.10
2022-08-26T08:33:14.532Z,31.80
2022-08-26T08:37:16.863Z,32.40
2022-08-26T08:41:31.900Z,32.70
2022-08-26T08:45:44.999Z,33.10
2022-08-26T08:49:49.447Z,33.80
2022-08-26T08:53:54.572Z,33.80
2022-08-26T08:58:08.097Z,34.60
2022-08-26T09:02:33.422Z,33.60
2022-08-26T09:06:36.140Z,32.40
2022-08-26T09:10:52.845Z,31.90
2022-08-26T09:15:03.928Z,31.40
2022-08-26T09:19:19.313Z,31.80
2022-08-26T09:23:21.770Z,31.50
2022-08-26T09:27:50.465Z,31.50
2022-08-26T09:32:13.591Z,33.80
2022-08-26T09:36:39.353Z,34.50
2022-08-26T09:41:02.079Z,35.30
2022-08-26T09:45:08.517Z,35.80
2022-08-26T09:49:39.531Z,36.90
2022-08-26T09:54:01.293Z,37.30
2022-08-26T09:58:07.873Z,37.30
2022-08-26T10:02:32.911Z,37.50
2022-08-26T10:06:42.671Z,37.60
2022-08-26T10:10:45.476Z,38.10
2022-08-26T10:14:55.227Z,38.50
2022-08-26T10:19:09.793Z,38.20
2022-08-26T10:23:18.081Z,38.10
2022-08-26T10:27:52.748Z,37.60
2022-08-26T10:32:03.430Z,37.10
2022-08-26T10:36:36.425Z,37.10
2022-08-26T10:40:50.216Z,36.70
2022-08-26T10:44:58.522Z,36.40
2022-08-26T10:49:06.567Z,36.00
2022-08-26T10:53:17.122Z,35.70
2022-08-26T10:57:46.036Z,35.50
2022-08-26T11:02:26.572Z,36.30
2022-08-26T11:06:31.392Z,36.90
2022-08-26T11:10:42.425Z,36.60
2022-08-26T11:14:53.241Z,37.00
2022-08-26T11:18:58.127Z,37.20
2022-08-26T11:23:12.781Z,37.10
2022-08-26T11:27:26.560Z,36.90
2022-08-26T11:31:30.370Z,36.50
2022-08-26T11:35:42.479Z,36.70
2022-08-26T11:39:55.378Z,36.80
2022-08-26T11:43:59.795Z,36.40
2022-08-26T11:48:16.781Z,36.50
2022-08-26T11:52:22.148Z,36.60
2022-08-26T11:56:32.460Z,36.50
2022-08-26T12:00:50.201Z,36.90
2022-08-26T12:04:54.055Z,36.40
2022-08-26T12:09:02.261Z,36.10
2022-08-26T12:13:06.299Z,36.00
2022-08-26T12:17:26.023Z,35.80
2022-08-26T12:21:34.604Z,35.40
2022-08-26T12:25:37.451Z,35.10
2022-08-26T12:29:39.579Z,34.90
2022-08-26T12:33:41.570Z,34.30
2022-08-26T12:37:47.791Z,34.00
2022-08-26T12:41:55.848Z,34.00
2022-08-26T12:46:04.661Z,34.00
2022-08-26T12:50:25.564Z,33.80
2022-08-26T12:54:47.466Z,33.00
2022-08-26T12:59:27.988Z,32.50
2022-08-26T13:03:37.471Z,32.10
2022-08-26T13:07:40.941Z,32.40
2022-08-26T13:11:42.912Z,32.70
2022-08-26T13:15:44.831Z,32.60
2022-08-26T13:19:46.972Z,32.70
2022-08-26T13:23:50.067Z,32.40
2022-08-26T13:27:52.022Z,32.30
2022-08-26T13:31:54.268Z,32.50
2022-08-26T13:35:56.281Z,32.70
2022-08-26T13:39:59.105Z,32.90
2022-08-26T13:44:01.117Z,32.60
2022-08-26T13:48:04.610Z,32.10
2022-08-26T13:52:06.602Z,31.50
2022-08-26T13:56:11.082Z,31.10
2022-08-26T14:00:14.210Z,31.20
2022-08-26T14:04:16.112Z,31.20
2022-08-26T14:08:25.550Z,31.00
2022-08-26T14:12:27.474Z,30.80
2022-08-26T14:16:33.547Z,30.50
2022-08-26T14:20:37.036Z,30.40
2022-08-26T14:24:39.189Z,30.10
2022-08-26T14:28:41.831Z,30.10
2022-08-26T14:32:49.265Z,29.90
2022-08-26T14:36:51.155Z,29.80
2022-08-26T14:40:53.056Z,29.60
2022-08-26T14:44:58.375Z,29.70
2022-08-26T14:49:03.524Z,29.60
2022-08-26T14:53:24.674Z,29.60
2022-08-26T14:57:26.616Z,29.30
2022-08-26T15:01:31.080Z,29.30
2022-08-26T15:05:34.027Z,29.00
2022-08-26T15:09:37.625Z,28.80
2022-08-26T15:13:39.647Z,28.60
2022-08-26T15:17:41.965Z,28.20
2022-08-26T15:21:45.714Z,27.50
2022-08-26T15:25:48.221Z,26.40
2022-08-26T15:29:50.666Z,26.00
2022-08-26T15:33:52.669Z,24.90
2022-08-26T15:37:54.629Z,24.00
2022-08-26T15:41:56.576Z,23.60
2022-08-26T15:45:59.015Z,23.20
2022-08-26T15:50:00.937Z,22.70
2022-08-26T15:54:04.008Z,22.30
2022-08-26T15:58:07.251Z,22.00
2022-08-26T16:02:10.718Z,22.00
2022-08-26T16:06:15.658Z,22.20
2022-08-26T16:10:18.689Z,22.50
2022-08-26T16:14:20.987Z,22.80
2022-08-26T16:18:23.665Z,22.60
2022-08-26T16:22:28.513Z,22.40
2022-08-26T16:26:33.372Z,22.10
2022-08-26T16:30:35.289Z,21.80
2022-08-26T16:34:37.205Z,21.40
2022-08-26T16:38:56.381Z,21.20
2022-08-26T16:42:58.381Z,20.90
2022-08-26T16:47:00.423Z,20.50
2022-08-26T16:51:02.419Z,20.20
2022-08-26T16:55:06.365Z,20.00
2022-08-26T16:59:11.571Z,20.10
2022-08-26T17:03:13.877Z,20.30
2022-08-26T17:07:15.930Z,20.70
2022-08-26T17:11:17.878Z,20.80
2022-08-26T17:15:20.093Z,21.00
2022-08-26T17:19:22.044Z,20.60
2022-08-26T17:23:24.240Z,20.30
2022-08-26T17:27:26.839Z,20.20
2022-08-26T17:31:28.802Z,20.30
2022-08-26T17:35:31.114Z,20.50
2022-08-26T17:39:33.064Z,19.90
2022-08-26T17:43:35.194Z,19.50
2022-08-26T17:47:38.181Z,19.50
2022-08-26T17:51:41.071Z,19.70
2022-08-26T17:55:45.147Z,19.80
2022-08-26T17:59:47.155Z,19.50
2022-08-26T18:03:50.381Z,19.30
2022-08-26T18:07:52.423Z,19.10
2022-08-26T18:11:54.315Z,18.90
2022-08-26T18:15:56.318Z,18.70
2022-08-26T18:19:59.059Z,18.60
2022-08-26T18:24:01.030Z,18.60
2022-08-26T18:28:03.063Z,18.50
2022-08-26T18:32:05.099Z,18.40
2022-08-26T18:36:07.184Z,18.30
2022-08-26T18:40:11.853Z,18.40
2022-08-26T18:44:15.214Z,18.60
2022-08-26T18:48:17.158Z,19.00
2022-08-26T18:52:19.168Z,19.10
2022-08-26T18:56:21.458Z,19.30
2022-08-26T19:00:23.949Z,19.30
2022-08-26T19:04:26.247Z,19.40
2022-08-26T19:08:28.157Z,19.60
2022-08-26T19:12:30.086Z,19.40
2022-08-26T19:16:35.457Z,19.40
2022-08-26T19:20:46.764Z,19.20
2022-08-26T19:24:48.816Z,19.00
2022-08-26T19:28:51.118Z,19.00
2022-08-26T19:32:52.982Z,18.90
2022-08-26T19:36:56.953Z,18.60
2022-08-26T19:40:58.909Z,18.70
2022-08-26T19:45:20.225Z,18.80
2022-08-26T19:49:27.281Z,18.80
2022-08-26T19:53:29.129Z,18.80
2022-08-26T19:57:31.185Z,18.90
2022-08-26T20:01:33.149Z,18.90
2022-08-26T20:05:35.284Z,18.70
2022-08-26T20:09:37.458Z,18.50
2022-08-26T20:13:40.048Z,18.30
2022-08-26T20:17:41.970Z,18.20
2022-08-26T20:21:44.037Z,18.40
2022-08-26T20:25:46.703Z,18.30
2022-08-26T20:29:48.614Z,18.10
2022-08-26T20:33:51.691Z,18.00
2022-08-26T20:37:53.601Z,18.10
2022-08-26T20:41:56.999Z,18.20
2022-08-26T20:45:59.705Z,18.10
2022-08-26T20:50:02.605Z,18.10
2022-08-26T20:54:07.069Z,18.00
2022-08-26T20:58:09.100Z,18.00
2022-08-26T21:02:11.146Z,17.90
2022-08-26T21:06:13.532Z,17.90
2022-08-26T21:10:15.451Z,17.80
2022-08-26T21:14:19.119Z,17.80
2022-08-26T21:18:21.004Z,18.00
2022-08-26T21:22:23.617Z,18.10
2022-08-26T21:26:26.236Z,18.10
2022-08-26T21:30:28.296Z,18.20
2022-08-26T21:34:30.247Z,18.20
2022-08-26T21:38:33.155Z,18.30
2022-08-26T21:42:35.727Z,18.40
2022-08-26T21:46:37.733Z,18.60
2022-08-26T21:50:40.009Z,18.70
2022-08-26T21:54:42.069Z,18.80
2022-08-26T21:58:52.365Z,18.60
2022-08-26T22:02:54.502Z,18.60
2022-08-26T22:06:59.743Z,18.80
2022-08-26T22:11:02.934Z,18.80
2022-08-26T22:15:05.792Z,18.70
2022-08-26T22:19:08.063Z,18.90
2022-08-26T22:23:15.393Z,18.80
2022-08-26T22:27:17.393Z,18.50
2022-08-26T22:31:19.348Z,18.30
2022-08-26T22:35:30.559Z,18.40
2022-08-26T22:39:32.625Z,18.50
2022-08-26T22:43:34.610Z,18.40
2022-08-26T22:47:37.351Z,18.00
2022-08-26T22:51:40.079Z,17.90
2022-08-26T22:55:43.524Z,18.00
2022-08-26T22:59:45.851Z,17.90
2022-08-26T23:03:47.838Z,17.90
2022-08-26T23:07:50.035Z,18.00
2022-08-26T23:11:52.097Z,18.00
2022-08-26T23:16:06.050Z,18.10
2022-08-26T23:20:11.573Z,18.30
2022-08-26T23:24:14.414Z,18.20
2022-08-26T23:28:16.850Z,18.10
2022-08-26T23:32:19.141Z,18.00
2022-08-26T23:36:22.715Z,18.00
2022-08-26T23:40:32.325Z,17.90
2022-08-26T23:44:35.067Z,17.80
2022-08-26T23:48:37.612Z,17.40
2022-08-26T23:52:58.575Z,17.40
2022-08-26T23:57:00.549Z,16.90
